Time;durP1;ratioP1;P1;durP2;ratioP2;P2;SDS_P1;SDS_P2;PMS_P1;PMS_P2;Temp;Humidity;BMP_temperature;BMP_pressure;BME280_temperature;BME280_humidity;BME280_pressure;Samples;Min_cycle;Max_cycle;Signal;HPM_P1;HPM_P2
2022/12/23 00:00:57;;;;;;;0.10;0.10;;;;;;;11.85;79.46;100390.63;5070036;28;20029;-81
2022/12/23 00:03:24;;;;;;;0.32;0.32;;;;;;;11.82;80.09;100385.41;5058963;28;20025;-82
2022/12/23 00:09:12;;;;;;;4.80;0.70;;;;;;;11.89;79.71;100402.88;5054184;28;20044;-81
2022/12/23 00:15:04;;;;;;;1.85;0.93;;;;;;;11.89;79.59;100405.53;5058552;28;20485;-82
2022/12/23 00:17:11;;;;;;;0.20;0.20;;;;;;;11.86;79.39;100402.09;5056210;28;20044;-80
2022/12/23 00:19:37;;;;;;;0.10;0.10;;;;;;;11.83;79.11;100405.72;5052810;28;20037;-82
2022/12/23 00:22:03;;;;;;;0.22;0.22;;;;;;;11.74;79.89;100414.84;5067759;28;20024;-81
2022/12/23 00:24:29;;;;;;;0.85;0.85;;;;;;;11.81;79.42;100421.72;5072419;28;20036;-78
2022/12/23 00:26:55;;;;;;;0.10;0.10;;;;;;;11.76;79.41;100417.44;5069038;28;20449;-82
2022/12/23 00:29:21;;;;;;;0.32;0.32;;;;;;;11.80;79.46;100419.09;5061280;28;20025;-80
2022/12/23 00:31:47;;;;;;;0.52;0.52;;;;;;;11.78;79.22;100412.97;5057385;28;20029;-79
2022/12/23 00:34:13;;;;;;;1.75;1.65;;;;;;;11.79;79.47;100423.53;5060577;28;20037;-80
2022/12/23 00:36:39;;;;;;;0.85;0.52;;;;;;;11.82;79.46;100427.88;5059970;28;20029;-79
2022/12/23 00:44:42;;;;;;;0.85;0.85;;;;;;;11.85;79.30;100422.47;5056614;28;20064;-80
2022/12/23 00:49:40;;;;;;;0.25;0.25;;;;;;;11.80;78.94;100419.09;5057656;28;20025;-80
2022/12/23 00:49:54;;;;;;;0.20;0.20;;;;;;;11.79;79.02;100420.03;5053706;28;20106;-79
2022/12/23 00:52:20;;;;;;;1.42;1.38;;;;;;;11.73;79.42;100426.38;5058795;28;20079;-80
2022/12/23 00:54:46;;;;;;;0.22;0.22;;;;;;;11.73;79.20;100423.72;5049536;28;20055;-80
2022/12/23 00:57:12;;;;;;;0.20;0.20;;;;;;;11.72;79.57;100422.00;5048754;28;20559;-80
2022/12/23 00:59:38;;;;;;;0.22;0.22;;;;;;;11.72;79.09;100421.13;5049960;28;20028;-80
2022/12/23 01:07:37;;;;;;;0.80;0.68;;;;;;;11.71;78.86;100440.63;5057933;28;20112;-80
2022/12/23 01:10:03;;;;;;;0.20;0.20;;;;;;;11.68;79.24;100438.94;5044822;28;20041;-80
2022/12/23 01:12:29;;;;;;;0.30;0.30;;;;;;;11.66;79.42;100443.41;5054246;28;20040;-80
2022/12/23 01:14:56;;;;;;;0.52;0.52;;;;;;;11.67;79.16;100450.47;5054867;28;20112;-79
2022/12/23 01:17:22;;;;;;;0.43;0.43;;;;;;;11.68;79.10;100440.72;5053641;28;20031;-79
2022/12/23 01:19:48;;;;;;;0.20;0.20;;;;;;;11.68;78.87;100443.38;5057020;28;20465;-79
2022/12/23 01:22:14;;;;;;;0.32;0.32;;;;;;;11.69;79.27;100437.13;5055905;28;20024;-80
2022/12/23 01:24:40;;;;;;;0.35;0.35;;;;;;;11.69;79.40;100451.28;5053113;28;20512;-80
2022/12/23 01:27:06;;;;;;;0.75;0.75;;;;;;;11.62;79.14;100447.94;5064627;28;20025;-80
2022/12/23 01:29:32;;;;;;;0.28;0.28;;;;;;;11.58;80.17;100448.09;5066241;28;20519;-79
2022/12/23 01:31:58;;;;;;;1.17;0.75;;;;;;;11.58;79.67;100456.91;5058367;28;20095;-79
2022/12/23 01:34:24;;;;;;;0.20;0.20;;;;;;;11.60;79.94;100460.41;5059912;28;20409;-79
2022/12/23 01:36:50;;;;;;;0.20;0.20;;;;;;;11.55;79.68;100466.75;5060284;28;20049;-80
2022/12/23 01:39:17;;;;;;;0.30;0.30;;;;;;;11.56;79.81;100469.34;5062523;28;20028;-79
2022/12/23 01:50:12;;;;;;;0.20;0.20;;;;;;;11.71;79.49;100493.69;5090983;27;1887726;-80
2022/12/23 01:52:48;;;;;;;1.13;1.13;;;;;;;11.73;79.26;100506.00;5118553;28;20076;-79
2022/12/23 01:55:19;;;;;;;2.65;0.80;;;;;;;11.67;79.85;100502.69;5098417;28;20024;-80
2022/12/23 01:57:47;;;;;;;0.10;0.10;;;;;;;11.72;79.27;100506.91;5117217;28;20043;-81
2022/12/23 02:05:47;;;;;;;0.40;0.40;;;;;;;11.72;79.11;100511.38;5102543;28;20029;-80
2022/12/23 02:11:15;;;;;;;1.15;1.00;;;;;;;11.68;79.53;100520.34;5093508;27;20115;-80
2022/12/23 02:16:53;;;;;;;0.30;0.30;;;;;;;11.56;79.23;100530.38;5100786;27;1204564;-80
2022/12/23 02:19:59;;;;;;;0.30;0.30;;;;;;;11.60;79.41;100528.50;5119772;28;20028;-81
2022/12/23 02:22:52;;;;;;;0.10;0.10;;;;;;;11.56;79.45;100538.34;5117947;28;20030;-80
2022/12/23 02:28:36;;;;;;;0.10;0.10;;;;;;;11.59;79.30;100543.56;5090970;28;20915;-80
2022/12/23 02:31:13;;;;;;;0.20;0.20;;;;;;;11.54;79.20;100550.81;5083195;28;20044;-81
2022/12/23 02:34:04;;;;;;;0.10;0.10;;;;;;;11.60;79.00;100553.28;5079574;28;20033;-80
2022/12/23 02:37:10;;;;;;;0.20;0.20;;;;;;;11.67;78.50;100561.06;5079638;28;20057;-80
2022/12/23 02:40:16;;;;;;;0.15;0.15;;;;;;;11.63;78.80;100568.25;5069977;28;20036;-80
2022/12/23 02:42:49;;;;;;;0.20;0.20;;;;;;;11.59;79.14;100579.84;5085896;28;20071;-81
2022/12/23 02:48:08;;;;;;;1.43;1.43;;;;;;;11.54;79.37;100577.34;5106355;27;1192829;-81
2022/12/23 02:50:37;;;;;;;0.10;0.10;;;;;;;11.53;78.97;100591.50;5134910;27;20027;-81
2022/12/23 02:53:14;;;;;;;0.10;0.10;;;;;;;11.55;79.33;100578.19;5123500;27;20028;-80
2022/12/23 02:55:44;;;;;;;0.30;0.30;;;;;;;11.51;78.61;100581.84;5115117;28;20024;-81
2022/12/23 02:58:15;;;;;;;0.50;0.47;;;;;;;11.51;78.96;100577.41;5128149;28;20036;-80
2022/12/23 03:00:43;;;;;;;4.18;0.60;;;;;;;11.52;79.09;100587.09;5126547;28;20039;-80
2022/12/23 03:03:10;;;;;;;0.20;0.20;;;;;;;11.53;78.76;100577.38;5121305;28;20476;-81
2022/12/23 03:05:41;;;;;;;0.28;0.28;;;;;;;11.47;79.14;100575.75;5125533;28;20069;-80
2022/12/23 03:08:15;;;;;;;0.32;0.32;;;;;;;11.52;78.78;100573.84;5118423;27;20115;-81
2022/12/23 03:10:59;;;;;;;1.00;0.85;;;;;;;11.52;78.97;100573.00;5114220;28;20499;-81
2022/12/23 03:13:57;;;;;;;0.10;0.10;;;;;;;11.52;78.75;100571.19;5113986;28;20047;-80
2022/12/23 03:16:40;;;;;;;0.52;0.43;;;;;;;11.46;78.93;100566.94;5110536;28;20024;-80
2022/12/23 03:19:34;;;;;;;0.30;0.30;;;;;;;11.46;78.45;100568.72;5110539;28;20027;-80
2022/12/23 03:24:46;;;;;;;0.20;0.20;;;;;;;11.36;79.07;100561.94;5071882;28;20391;-81
2022/12/23 03:27:23;;;;;;;0.13;0.13;;;;;;;11.36;78.80;100562.78;5057174;28;20166;-81
2022/12/23 03:32:45;;;;;;;0.32;0.32;;;;;;;11.24;78.76;100571.97;5093394;27;20382;-79
2022/12/23 03:35:16;;;;;;;0.10;0.10;;;;;;;11.23;78.80;100562.25;5091145;28;20033;-80
2022/12/23 03:37:47;;;;;;;0.10;0.10;;;;;;;11.26;79.21;100571.91;5091180;28;20023;-80
2022/12/23 03:40:21;;;;;;;0.20;0.20;;;;;;;11.29;78.43;100571.81;5098626;28;20085;-80
2022/12/23 03:42:53;;;;;;;0.93;0.88;;;;;;;11.29;78.71;100579.78;5095559;28;20027;-80
2022/12/23 03:45:25;;;;;;;0.15;0.15;;;;;;;11.30;78.44;100576.22;5106465;28;20092;-80
2022/12/23 03:47:58;;;;;;;0.30;0.30;;;;;;;11.26;78.45;100578.06;5101741;28;20032;-80
2022/12/23 03:50:25;;;;;;;0.68;0.68;;;;;;;11.25;78.49;100571.06;5089418;28;20102;-80
2022/12/23 03:52:59;;;;;;;0.20;0.20;;;;;;;11.17;78.28;100579.19;5106965;28;20037;-80
2022/12/23 03:55:32;;;;;;;0.20;0.20;;;;;;;11.21;78.48;100576.47;5111217;28;20020;-79
2022/12/23 03:58:10;;;;;;;0.20;0.20;;;;;;;11.25;78.53;100580.78;5112499;28;20046;-79
2022/12/23 04:00:44;;;;;;;0.10;0.10;;;;;;;11.23;78.22;100591.44;5093785;28;20480;-81
2022/12/23 04:03:31;;;;;;;0.10;0.10;;;;;;;11.29;78.57;100599.22;5091133;28;20028;-79
2022/12/23 04:06:00;;;;;;;0.10;0.10;;;;;;;11.23;78.81;100603.84;5091821;28;20012;-80
2022/12/23 04:08:33;;;;;;;0.10;0.10;;;;;;;11.16;78.94;100603.09;5091743;28;20101;-80
2022/12/23 04:11:01;;;;;;;0.10;0.10;;;;;;;11.22;78.91;100608.25;5091170;28;20460;-79
2022/12/23 04:13:28;;;;;;;0.10;0.10;;;;;;;11.25;78.63;100613.50;5106961;28;20032;-79
2022/12/23 04:15:56;;;;;;;0.40;0.40;;;;;;;11.26;78.48;100617.88;5106105;28;20025;-79
2022/12/23 04:18:22;;;;;;;0.20;0.20;;;;;;;11.28;78.56;100618.69;5104103;28;20027;-79
2022/12/23 04:20:48;;;;;;;0.20;0.20;;;;;;;11.29;78.39;100608.94;5099847;28;20021;-80
2022/12/23 04:23:14;;;;;;;0.10;0.10;;;;;;;11.30;78.88;100614.25;5098391;28;21189;-80
2022/12/23 04:25:40;;;;;;;0.10;0.10;;;;;;;11.25;78.74;100621.44;5100603;28;20031;-80
2022/12/23 04:28:06;;;;;;;0.10;0.10;;;;;;;11.26;78.60;100625.81;5105681;28;20039;-80
2022/12/23 04:30:32;;;;;;;0.30;0.30;;;;;;;11.26;78.66;100623.16;5096585;28;20120;-80
2022/12/23 04:32:59;;;;;;;0.20;0.20;;;;;;;11.24;78.61;100619.69;5091127;28;20488;-80
2022/12/23 04:35:25;;;;;;;0.20;0.20;;;;;;;11.26;78.69;100615.22;5094587;28;20039;-80
2022/12/23 04:37:51;;;;;;;0.17;0.17;;;;;;;11.27;78.11;100616.09;5105950;28;20024;-80
2022/12/23 04:40:17;;;;;;;1.05;1.05;;;;;;;11.27;78.49;100602.84;5096880;28;20028;-81
2022/12/23 04:42:43;;;;;;;0.10;0.10;;;;;;;11.29;78.65;100593.03;5090424;28;20109;-80
2022/12/23 04:45:10;;;;;;;0.40;0.40;;;;;;;11.32;78.79;100595.63;5085888;28;20033;-80
2022/12/23 04:47:36;;;;;;;0.10;0.10;;;;;;;11.32;78.87;100592.97;5090322;28;20050;-80
2022/12/23 04:50:02;;;;;;;0.20;0.20;;;;;;;11.30;78.37;100590.38;5100465;28;20039;-80
2022/12/23 04:52:28;;;;;;;0.20;0.20;;;;;;;11.31;78.47;100591.22;5099491;28;20032;-81
2022/12/23 04:54:55;;;;;;;0.20;0.20;;;;;;;11.25;79.02;100584.31;5094274;28;20036;-81
2022/12/23 04:57:21;;;;;;;0.20;0.20;;;;;;;11.24;78.48;100590.53;5092947;28;20048;-81
2022/12/23 04:59:47;;;;;;;0.20;0.20;;;;;;;11.24;79.09;100597.59;5075778;28;20461;-81
2022/12/23 05:02:13;;;;;;;0.30;0.30;;;;;;;11.24;79.04;100603.78;5082679;28;20063;-81
2022/12/23 05:04:39;;;;;;;0.10;0.10;;;;;;;11.25;78.80;100596.69;5074868;28;20059;-82
2022/12/23 05:07:05;;;;;;;0.30;0.30;;;;;;;11.22;79.11;100597.66;5077329;28;20029;-81
2022/12/23 05:09:31;;;;;;;0.43;0.43;;;;;;;11.26;78.85;100594.00;5073973;28;20060;-81
2022/12/23 05:11:57;;;;;;;0.20;0.20;;;;;;;11.27;78.92;100601.03;5078691;28;20103;-81
2022/12/23 05:14:23;;;;;;;0.40;0.40;;;;;;;11.34;78.11;100612.38;5075312;28;20044;-82
2022/12/23 05:16:49;;;;;;;0.10;0.10;;;;;;;11.35;78.10;100614.09;5074386;28;20530;-81
2022/12/23 05:19:15;;;;;;;0.10;0.10;;;;;;;11.34;78.17;100615.03;5075180;28;20377;-81
2022/12/23 05:21:41;;;;;;;0.22;0.22;;;;;;;11.34;78.08;100628.28;5079168;28;20515;-81
2022/12/23 05:24:08;;;;;;;0.20;0.20;;;;;;;11.35;78.67;100630.00;5074669;28;20485;-81
2022/12/23 05:26:34;;;;;;;0.20;0.20;;;;;;;11.35;78.19;100629.16;5082080;28;20056;-82
2022/12/23 05:29:00;;;;;;;0.20;0.20;;;;;;;11.36;78.01;100630.91;5077726;28;20035;-81
2022/12/23 05:31:26;;;;;;;0.10;0.10;;;;;;;11.39;78.26;100636.09;5086507;28;20028;-80
2022/12/23 05:33:52;;;;;;;0.10;0.10;;;;;;;11.40;78.62;100637.84;5098814;28;20059;-80
2022/12/23 05:36:18;;;;;;;0.20;0.20;;;;;;;11.41;78.50;100643.09;5089070;28;20094;-81
2022/12/23 05:38:44;;;;;;;0.95;0.95;;;;;;;11.42;78.23;100646.66;5073990;28;20134;-82
2022/12/23 05:41:10;;;;;;;0.10;0.10;;;;;;;11.42;78.34;100641.34;5077357;28;20051;-81
2022/12/23 05:43:36;;;;;;;0.10;0.10;;;;;;;11.39;78.26;100638.75;5075052;28;20044;-81
2022/12/23 05:46:02;;;;;;;0.85;0.73;;;;;;;11.41;78.26;100626.34;5075458;28;20388;-82
2022/12/23 05:48:28;;;;;;;0.20;0.20;;;;;;;11.43;78.45;100629.81;5073964;28;20040;-80
2022/12/23 05:50:54;;;;;;;0.20;0.20;;;;;;;11.44;78.13;100619.16;5070910;28;20500;-81
2022/12/23 05:53:21;;;;;;;0.10;0.10;;;;;;;11.47;78.31;100626.16;5067906;28;20036;-81
2022/12/23 05:55:47;;;;;;;0.10;0.10;;;;;;;11.48;78.09;100619.94;5075890;28;20044;-81
2022/12/23 05:58:14;;;;;;;0.20;0.20;;;;;;;11.48;78.56;100619.94;5077639;28;20028;-81
2022/12/23 06:00:40;;;;;;;0.65;0.65;;;;;;;11.49;77.91;100613.75;5070217;28;20081;-82
2022/12/23 06:03:07;;;;;;;0.10;0.10;;;;;;;11.48;78.22;100610.19;5070482;28;20037;-81
2022/12/23 06:05:35;;;;;;;0.10;0.10;;;;;;;11.48;78.13;100604.03;5063719;28;20025;-81
2022/12/23 06:08:01;;;;;;;0.20;0.20;;;;;;;11.49;78.61;100593.38;5059917;28;20035;-81
2022/12/23 06:10:27;;;;;;;0.10;0.10;;;;;;;11.49;78.02;100590.72;5073800;28;20060;-81
2022/12/23 06:12:53;;;;;;;0.20;0.20;;;;;;;11.49;78.52;100590.72;5061035;28;20028;-81
2022/12/23 06:15:19;;;;;;;0.10;0.10;;;;;;;11.51;78.15;100580.06;5063509;28;20024;-81
2022/12/23 06:17:45;;;;;;;0.73;0.73;;;;;;;11.50;77.93;100580.97;5067865;28;20039;-81
2022/12/23 06:20:11;;;;;;;0.10;0.10;;;;;;;11.49;78.50;100589.88;5069071;28;20033;-81
2022/12/23 06:22:37;;;;;;;0.20;0.20;;;;;;;11.48;78.06;100596.06;5069257;28;20025;-82
2022/12/23 06:25:04;;;;;;;0.20;0.20;;;;;;;11.46;77.91;100604.09;5066353;28;20023;-81
2022/12/23 06:27:30;;;;;;;0.20;0.20;;;;;;;11.46;78.04;100604.09;5072135;28;20373;-82
2022/12/23 06:29:56;;;;;;;0.20;0.20;;;;;;;11.47;78.23;100607.59;5072976;28;20036;-81
2022/12/23 06:32:22;;;;;;;0.10;0.10;;;;;;;11.46;78.46;100612.03;5073402;28;20025;-81
2022/12/23 06:34:52;;;;;;;0.20;0.20;;;;;;;11.47;77.85;100612.91;5083257;28;20025;-81
2022/12/23 06:37:19;;;;;;;0.13;0.13;;;;;;;11.46;78.37;100609.38;5082166;28;20106;-81
2022/12/23 06:39:45;;;;;;;0.13;0.13;;;;;;;11.45;78.14;100607.66;5069530;28;20028;-82
2022/12/23 06:42:11;;;;;;;1.00;0.95;;;;;;;11.44;78.37;100621.81;5063302;28;20107;-82
2022/12/23 06:44:37;;;;;;;0.10;0.10;;;;;;;11.43;78.06;100622.72;5077256;28;20028;-81
2022/12/23 06:47:03;;;;;;;0.52;0.52;;;;;;;11.45;78.00;100622.69;5076114;28;20522;-82
2022/12/23 06:49:30;;;;;;;0.20;0.20;;;;;;;11.45;78.08;100622.69;5091905;28;20051;-80
2022/12/23 06:51:56;;;;;;;0.40;0.40;;;;;;;11.45;78.07;100628.88;5079215;28;20025;-81
2022/12/23 06:54:22;;;;;;;0.10;0.10;;;;;;;11.47;78.32;100623.50;5065141;28;20051;-80
2022/12/23 06:56:48;;;;;;;0.20;0.20;;;;;;;11.47;78.39;100618.22;5069390;28;20404;-81
2022/12/23 06:59:14;;;;;;;0.10;0.10;;;;;;;11.46;78.21;100627.97;5064700;28;20032;-80
2022/12/23 07:01:40;;;;;;;0.10;0.10;;;;;;;11.46;78.30;100627.06;5070082;28;20044;-81
2022/12/23 07:04:06;;;;;;;0.10;0.10;;;;;;;11.46;77.77;100630.63;5074715;28;20048;-82
2022/12/23 07:06:32;;;;;;;0.20;0.20;;;;;;;11.46;78.47;100638.56;5073388;28;20045;-81
2022/12/23 07:08:58;;;;;;;1.42;1.33;;;;;;;11.46;78.18;100640.34;5070309;28;20033;-80
2022/12/23 07:11:24;;;;;;;0.10;0.10;;;;;;;11.45;78.50;100647.44;5072032;28;20038;-81
2022/12/23 07:13:50;;;;;;;0.38;0.38;;;;;;;11.44;78.01;100647.47;5076260;28;20082;-81
2022/12/23 07:16:16;;;;;;;0.10;0.10;;;;;;;11.41;77.57;100655.50;5077693;28;20028;-81
2022/12/23 07:18:42;;;;;;;0.20;0.20;;;;;;;11.40;78.29;100653.75;5076640;28;20036;-81
2022/12/23 07:21:09;;;;;;;0.20;0.20;;;;;;;11.38;78.00;100650.31;5077740;28;20024;-79
2022/12/23 07:23:35;;;;;;;0.30;0.30;;;;;;;11.33;77.84;100638.00;5076786;28;20020;-80
2022/12/23 07:26:01;;;;;;;0.30;0.30;;;;;;;11.35;77.67;100639.75;5081645;28;20115;-79
2022/12/23 07:28:27;;;;;;;0.32;0.32;;;;;;;11.36;77.79;100634.41;5082235;28;20048;-80
2022/12/23 07:30:53;;;;;;;0.25;0.25;;;;;;;11.36;78.38;100630.91;5075502;28;20032;-80
2022/12/23 07:33:19;;;;;;;0.10;0.10;;;;;;;11.36;77.67;100630.91;5075890;28;20033;-81
2022/12/23 07:35:45;;;;;;;0.10;0.10;;;;;;;11.36;78.18;100636.19;5074954;28;20106;-83
2022/12/23 07:38:11;;;;;;;0.45;0.45;;;;;;;11.37;78.55;100630.84;5077537;28;21331;-81
2022/12/23 07:40:37;;;;;;;0.10;0.10;;;;;;;11.38;78.87;100627.28;5072122;28;20497;-81
2022/12/23 07:43:04;;;;;;;0.30;0.30;;;;;;;11.36;78.56;100628.25;5071220;28;20055;-82
2022/12/23 07:45:30;;;;;;;0.25;0.25;;;;;;;11.35;78.22;100618.53;5071908;28;20028;-81
2022/12/23 07:47:58;;;;;;;0.75;0.75;;;;;;;11.35;78.93;100618.53;5071674;28;20064;-78
2022/12/23 07:50:25;;;;;;;1.20;1.20;;;;;;;11.35;78.86;100618.53;5070726;28;20032;-79
2022/12/23 07:52:52;;;;;;;0.20;0.20;;;;;;;11.35;78.46;100618.53;5066766;28;20530;-81
2022/12/23 07:55:19;;;;;;;0.75;0.75;;;;;;;11.36;79.02;100609.66;5072415;28;20024;-81
2022/12/23 07:57:50;;;;;;;0.10;0.10;;;;;;;11.36;78.82;100610.53;5064526;28;20032;-80
2022/12/23 08:00:17;;;;;;;0.10;0.10;;;;;;;11.27;78.81;100609.00;5054602;28;20021;-79
2022/12/23 08:02:43;;;;;;;0.10;0.10;;;;;;;11.24;78.79;100611.75;5063153;28;20134;-84
2022/12/23 08:05:09;;;;;;;0.55;0.55;;;;;;;11.23;79.19;100610.00;5066822;28;20037;-84
2022/12/23 08:07:36;;;;;;;0.20;0.20;;;;;;;11.17;79.45;100610.16;5085491;28;20044;-87
2022/12/23 08:10:05;;;;;;;0.32;0.32;;;;;;;10.90;80.72;100609.94;5078498;28;20192;-87
2022/12/23 08:12:32;;;;;;;0.10;0.10;;;;;;;10.86;80.68;100599.47;5079616;28;20361;-84
2022/12/23 08:14:58;;;;;;;0.20;0.20;;;;;;;10.84;81.23;100605.69;5076342;28;20511;-85
2022/12/23 08:17:27;;;;;;;0.43;0.43;;;;;;;10.83;80.98;100593.34;5071434;28;20040;-81
2022/12/23 08:19:53;;;;;;;0.30;0.30;;;;;;;10.82;80.99;100585.44;5079338;28;20024;-81
2022/12/23 08:22:19;;;;;;;0.50;0.50;;;;;;;10.82;81.28;100580.13;5072979;28;20035;-81
2022/12/23 08:24:45;;;;;;;0.13;0.13;;;;;;;10.82;81.45;100577.47;5080848;28;20044;-80
2022/12/23 08:27:11;;;;;;;0.10;0.10;;;;;;;10.81;81.52;100581.88;5085073;28;20103;-81
2022/12/23 08:29:39;;;;;;;0.28;0.28;;;;;;;10.83;81.29;100581.88;5082807;28;20039;-81
2022/12/23 08:32:05;;;;;;;0.13;0.13;;;;;;;10.80;81.39;100584.59;5075544;28;20048;-82
2022/12/23 08:34:32;;;;;;;0.28;0.28;;;;;;;10.74;81.81;100579.44;5071575;28;20027;-82
2022/12/23 08:36:58;;;;;;;0.10;0.10;;;;;;;10.74;82.00;100582.09;5077764;28;20036;-83
2022/12/23 08:39:24;;;;;;;1.00;1.00;;;;;;;10.75;82.15;100575.88;5075456;28;20055;-88
2022/12/23 08:41:50;;;;;;;1.83;1.40;;;;;;;10.76;82.12;100569.69;5075402;28;20134;-83
2022/12/23 08:44:16;;;;;;;0.10;0.10;;;;;;;10.76;82.12;100573.19;5076037;28;20066;-82
2022/12/23 08:46:43;;;;;;;4.95;1.65;;;;;;;10.91;81.89;100571.94;5079036;28;20024;-84
2022/12/23 08:49:09;;;;;;;0.20;0.20;;;;;;;10.87;81.36;100564.97;5074933;28;20029;-80
2022/12/23 08:51:36;;;;;;;0.57;0.57;;;;;;;10.90;81.29;100564.03;5070081;28;20031;-84
2022/12/23 08:54:03;;;;;;;0.10;0.10;;;;;;;10.91;81.23;100569.28;5079637;28;20037;-85
2022/12/23 08:56:33;;;;;;;0.20;0.20;;;;;;;10.93;81.56;100559.53;5082684;28;20119;-82
2022/12/23 08:58:59;;;;;;;0.10;0.10;;;;;;;10.93;81.23;100559.53;5081065;28;20112;-82
2022/12/23 09:01:28;;;;;;;0.43;0.43;;;;;;;10.95;80.90;100562.13;5083029;28;20496;-82
2022/12/23 09:03:54;;;;;;;0.20;0.20;;;;;;;10.93;81.27;100564.81;5080117;28;20028;-83
2022/12/23 09:06:24;;;;;;;0.75;0.75;;;;;;;10.95;80.98;100555.06;5081692;28;20070;-83
2022/12/23 09:08:51;;;;;;;0.20;0.20;;;;;;;10.94;81.36;100545.38;5079615;28;20051;-83
2022/12/23 09:11:21;;;;;;;0.10;0.10;;;;;;;10.93;81.25;100540.97;5081507;28;20052;-83
2022/12/23 09:13:47;;;;;;;0.20;0.20;;;;;;;10.93;81.27;100538.31;5081207;28;20519;-83
2022/12/23 09:16:14;;;;;;;0.20;0.20;;;;;;;10.94;81.42;100532.09;5081361;28;20029;-83
2022/12/23 09:18:40;;;;;;;0.30;0.30;;;;;;;10.98;80.96;100535.56;5081354;28;20028;-83
2022/12/23 09:21:10;;;;;;;0.15;0.15;;;;;;;11.00;81.24;100534.59;5087353;28;20032;-82
2022/12/23 09:23:36;;;;;;;0.68;0.68;;;;;;;11.03;81.46;100524.81;5094207;28;20020;-82
2022/12/23 09:26:04;;;;;;;0.10;0.10;;;;;;;11.09;81.29;100535.25;5094443;28;20036;-83
2022/12/23 09:28:30;;;;;;;0.10;0.10;;;;;;;11.07;81.10;100531.78;5081446;28;20032;-83
2022/12/23 09:30:56;;;;;;;0.10;0.10;;;;;;;11.09;81.34;100543.19;5079827;28;20074;-83
2022/12/23 09:33:23;;;;;;;6.35;0.75;;;;;;;11.10;81.42;100531.69;5080694;28;20032;-83
2022/12/23 09:35:49;;;;;;;0.13;0.13;;;;;;;11.12;81.42;100525.41;5080423;28;20032;-82
2022/12/23 09:38:18;;;;;;;0.10;0.10;;;;;;;11.13;81.56;100524.53;5079367;28;20020;-82
2022/12/23 09:40:44;;;;;;;0.10;0.10;;;;;;;11.14;81.22;100512.13;5078505;28;20036;-82
2022/12/23 09:43:37;;;;;;;0.20;0.20;;;;;;;11.20;81.33;100506.66;5080154;28;20025;-82
2022/12/23 09:46:22;;;;;;;0.20;0.20;;;;;;;11.19;80.84;100502.28;5079615;28;20040;-82
2022/12/23 09:49:07;;;;;;;0.10;0.10;;;;;;;11.15;80.63;100487.34;5079033;28;20033;-82
2022/12/23 09:51:33;;;;;;;0.32;0.32;;;;;;;11.13;80.99;100481.25;5079815;28;20493;-82
2022/12/23 09:54:15;;;;;;;0.20;0.20;;;;;;;11.16;81.31;100484.69;5079634;28;20032;-83
2022/12/23 10:00:02;;;;;;;0.20;0.20;;;;;;;11.20;81.47;100473.97;5117016;27;1224024;-81
2022/12/23 10:16:16;;;;;;;1.08;1.00;;;;;;;11.18;81.24;100463.41;5017202;27;20406;-81
2022/12/23 10:21:43;;;;;;;0.20;0.20;;;;;;;11.20;81.50;100461.56;5119169;27;1234923;-80
2022/12/23 10:24:18;;;;;;;0.32;0.32;;;;;;;11.23;81.21;100465.94;5132280;27;20043;-81
2022/12/23 10:26:51;;;;;;;0.60;0.60;;;;;;;11.21;81.62;100451.84;5116598;27;20051;-80
2022/12/23 10:29:20;;;;;;;0.30;0.30;;;;;;;11.21;81.10;100455.34;5115013;28;20573;-80
2022/12/23 10:32:16;;;;;;;3.90;1.23;;;;;;;11.24;81.07;100446.44;5121853;28;20020;-80
2022/12/23 10:35:08;;;;;;;0.93;0.93;;;;;;;11.26;81.46;100445.47;5111327;28;20079;-80
2022/12/23 10:37:50;;;;;;;0.20;0.20;;;;;;;11.28;81.29;100446.31;5111516;28;20172;-80
2022/12/23 10:40:25;;;;;;;0.20;0.20;;;;;;;11.26;81.31;100444.63;5110969;28;20423;-80
2022/12/23 10:48:40;;;;;;;2.15;1.85;;;;;;;11.32;81.18;100433.84;5111633;27;20381;-80
2022/12/23 10:53:51;;;;;;;1.40;1.30;;;;;;;11.27;81.29;100431.31;5112103;27;20590;-80
2022/12/23 10:56:18;;;;;;;0.22;0.22;;;;;;;11.24;81.18;100415.50;5112702;28;20058;-80
2022/12/23 10:58:49;;;;;;;0.20;0.20;;;;;;;11.24;81.27;100419.91;5111560;28;20275;-80
2022/12/23 11:01:17;;;;;;;0.85;0.85;;;;;;;11.26;81.44;100429.56;5111455;28;20024;-80
2022/12/23 11:04:06;;;;;;;1.40;1.30;;;;;;;11.25;81.61;100438.47;5111885;28;20039;-80
2022/12/23 11:06:37;;;;;;;0.20;0.20;;;;;;;11.22;81.18;100427.94;5111529;28;20032;-80
2022/12/23 11:09:04;;;;;;;0.20;0.20;;;;;;;11.19;81.35;100406.81;5111244;28;20039;-80
2022/12/23 11:17:22;;;;;;;1.27;1.17;;;;;;;11.17;80.88;100387.41;5112057;27;20392;-80
2022/12/23 11:22:57;;;;;;;0.60;0.60;;;;;;;11.14;81.05;100350.38;5120287;27;1182489;-80
2022/12/23 11:25:36;;;;;;;0.50;0.50;;;;;;;11.11;81.17;100332.78;5133770;27;20073;-80
2022/12/23 11:28:10;;;;;;;0.20;0.20;;;;;;;11.08;81.02;100327.59;5112970;28;20028;-80
2022/12/23 11:33:34;;;;;;;0.60;0.60;;;;;;;11.09;81.27;100320.50;5127755;27;1189045;-80
2022/12/23 11:38:50;;;;;;;1.05;1.05;;;;;;;11.10;81.59;100316.91;5138432;27;20396;-79
2022/12/23 11:41:22;;;;;;;0.10;0.10;;;;;;;11.11;81.45;100308.06;5122267;28;20039;-80
2022/12/23 11:43:59;;;;;;;1.20;0.88;;;;;;;11.13;81.48;100306.25;5121216;28;20027;-80
2022/12/23 11:46:29;;;;;;;0.20;0.20;;;;;;;11.11;81.35;100300.97;5119850;28;20031;-80
2022/12/23 11:49:19;;;;;;;5.43;1.33;;;;;;;11.12;81.17;100293.91;5114622;28;20030;-80
2022/12/23 11:51:59;;;;;;;0.43;0.43;;;;;;;11.09;81.04;100293.97;5113997;28;20032;-80
2022/12/23 11:54:26;;;;;;;0.25;0.25;;;;;;;11.04;81.31;100285.31;5113645;28;20020;-80
2022/12/23 11:56:53;;;;;;;0.13;0.13;;;;;;;11.03;81.08;100280.91;5115149;28;20072;-79
2022/12/23 11:59:29;;;;;;;0.40;0.40;;;;;;;11.03;80.98;100280.91;5115263;28;20035;-81
2022/12/23 12:01:59;;;;;;;0.20;0.20;;;;;;;10.98;81.55;100286.38;5116384;28;20077;-81
2022/12/23 12:04:28;;;;;;;1.05;1.05;;;;;;;10.97;81.67;100277.53;5115235;28;20028;-81
2022/12/23 12:06:55;;;;;;;0.50;0.50;;;;;;;10.99;81.49;100267.75;5113867;28;20083;-81
2022/12/23 12:09:23;;;;;;;0.75;0.75;;;;;;;10.99;81.19;100258.94;5113502;28;20039;-83
2022/12/23 12:11:57;;;;;;;0.73;0.73;;;;;;;10.98;81.60;100242.16;5114656;28;20119;-81
2022/12/23 12:14:45;;;;;;;0.45;0.45;;;;;;;11.01;81.26;100235.91;5115171;28;20036;-81
2022/12/23 12:20:03;;;;;;;1.17;1.17;;;;;;;10.94;81.20;100211.38;5113743;27;20136;-80
2022/12/23 12:22:52;;;;;;;1.30;1.20;;;;;;;10.97;81.27;100205.13;5114255;28;20032;-80
2022/12/23 12:25:27;;;;;;;0.35;0.35;;;;;;;10.90;81.34;100204.41;5113678;28;20024;-80
2022/12/23 12:28:01;;;;;;;0.55;0.55;;;;;;;10.87;81.37;100193.94;5114442;28;20092;-80
2022/12/23 12:30:38;;;;;;;2.03;1.92;;;;;;;10.90;81.62;100196.47;5113771;28;20024;-80
2022/12/23 12:33:18;;;;;;;1.00;1.00;;;;;;;10.92;81.51;100186.69;5113795;28;20055;-80
2022/12/23 12:35:48;;;;;;;0.65;0.65;;;;;;;10.90;81.36;100177.91;5113791;28;20020;-81
2022/12/23 12:38:24;;;;;;;0.10;0.10;;;;;;;10.93;81.20;100174.31;5114545;28;20031;-80
2022/12/23 12:40:56;;;;;;;1.95;1.85;;;;;;;10.94;81.56;100163.66;5113605;28;20685;-80
2022/12/23 12:43:28;;;;;;;0.88;0.88;;;;;;;10.96;81.82;100166.25;5113638;28;20036;-80
2022/12/23 12:49:12;;;;;;;1.23;0.73;;;;;;;10.99;81.52;100159.09;5122286;27;20373;-79
2022/12/23 12:51:53;;;;;;;0.30;0.30;;;;;;;10.96;81.43;100156.50;5119385;28;20043;-80
2022/12/23 12:56:57;;;;;;;0.10;0.10;;;;;;;10.95;81.63;100157.47;5096249;27;20583;-79
2022/12/23 12:59:27;;;;;;;0.10;0.10;;;;;;;10.94;81.62;100153.06;5093859;28;20100;-80
2022/12/23 13:02:21;;;;;;;0.85;0.85;;;;;;;10.96;81.84;100142.41;5094359;28;20025;-80
2022/12/23 13:10:37;;;;;;;0.10;0.10;;;;;;;10.97;81.20;100137.03;5096726;27;20728;-79
2022/12/23 13:13:23;;;;;;;0.32;0.32;;;;;;;10.98;81.59;100138.78;5098074;28;20094;-80
2022/12/23 13:24:18;;;;;;;0.15;0.15;;;;;;;11.03;81.13;100076.78;5119929;27;1215571;-79
2022/12/23 13:32:42;;;;;;;0.40;0.40;;;;;;;11.00;81.75;100080.41;5133917;27;20135;-80
2022/12/23 13:35:48;;;;;;;0.20;0.20;;;;;;;11.03;81.49;100063.53;5134584;27;20096;-80
2022/12/23 13:38:42;;;;;;;0.13;0.13;;;;;;;10.96;81.87;100061.09;5136133;27;20092;-80